createdAt,value
2022-08-20T00:04:21.394Z,16.97
2022-08-20T00:09:23.224Z,16.98
2022-08-20T00:14:24.735Z,16.92
2022-08-20T00:19:27.108Z,16.94
2022-08-20T00:24:28.737Z,16.98
2022-08-20T00:29:30.473Z,16.96
2022-08-20T00:34:32.032Z,16.95
2022-08-20T00:39:33.662Z,17.01
2022-08-20T00:44:35.861Z,17.02
2022-08-20T00:49:37.898Z,16.96
2022-08-20T00:54:49.671Z,16.88
2022-08-20T00:59:52.532Z,16.68
2022-08-20T01:04:55.710Z,16.64
2022-08-20T01:09:58.830Z,16.56
2022-08-20T01:15:03.719Z,16.49
2022-08-20T01:20:24.807Z,16.52
2022-08-20T01:25:53.252Z,16.48
2022-08-20T01:30:55.029Z,16.42
2022-08-20T01:35:56.721Z,16.41
2022-08-20T01:41:45.252Z,16.38
2022-08-20T01:46:49.918Z,16.41
2022-08-20T01:51:57.776Z,16.50
2022-08-20T01:57:10.340Z,16.51
2022-08-20T02:02:13.239Z,16.50
2022-08-20T02:07:17.492Z,16.50
2022-08-20T02:12:19.540Z,16.45
2022-08-20T02:17:23.142Z,16.30
2022-08-20T02:22:34.990Z,16.40
2022-08-20T02:27:39.266Z,16.42
2022-08-20T02:32:41.987Z,16.44
2022-08-20T02:37:45.064Z,16.43
2022-08-20T02:42:47.674Z,16.45
2022-08-20T02:47:54.237Z,16.46
2022-08-20T02:52:56.379Z,16.48
2022-08-20T02:57:59.947Z,16.50
2022-08-20T03:03:02.149Z,16.36
2022-08-20T03:08:07.055Z,16.40
2022-08-20T03:13:12.394Z,16.46
2022-08-20T03:18:16.799Z,16.41
2022-08-20T03:23:21.226Z,16.44
2022-08-20T03:28:22.965Z,16.40
2022-08-20T03:33:24.539Z,16.41
2022-08-20T03:38:32.854Z,16.40
2022-08-20T03:43:35.508Z,16.38
2022-08-20T03:48:38.482Z,16.41
2022-08-20T03:53:40.176Z,16.41
2022-08-20T03:58:41.734Z,16.41
2022-08-20T04:03:43.374Z,16.41
2022-08-20T04:08:44.958Z,16.37
2022-08-20T04:13:46.585Z,16.36
2022-08-20T04:19:01.814Z,16.38
2022-08-20T04:24:06.026Z,16.42
2022-08-20T04:29:08.132Z,16.42
2022-08-20T04:34:09.687Z,16.50
2022-08-20T04:39:11.252Z,16.50
2022-08-20T04:44:13.079Z,16.48
2022-08-20T04:49:14.703Z,16.55
2022-08-20T04:54:16.442Z,16.59
2022-08-20T04:59:18.067Z,16.67
2022-08-20T05:04:19.575Z,16.69
2022-08-20T05:09:21.146Z,16.79
2022-08-20T05:14:22.681Z,16.86
2022-08-20T05:19:24.345Z,16.93
2022-08-20T05:24:26.145Z,17.05
2022-08-20T05:29:28.518Z,17.16
2022-08-20T05:34:30.100Z,17.24
2022-08-20T05:39:35.466Z,17.36
2022-08-20T05:44:39.214Z,17.49
2022-08-20T05:49:40.741Z,17.65
2022-08-20T05:54:42.241Z,17.85
2022-08-20T05:59:43.827Z,17.95
2022-08-20T06:04:45.371Z,18.15
2022-08-20T06:09:47.109Z,18.19
2022-08-20T06:14:48.770Z,18.42
2022-08-20T06:19:50.978Z,18.48
2022-08-20T06:24:53.082Z,18.48
2022-08-20T06:29:54.965Z,19.04
2022-08-20T06:34:56.639Z,19.00
2022-08-20T06:40:03.111Z,19.43
2022-08-20T06:45:05.729Z,19.48
2022-08-20T06:50:16.851Z,19.50
2022-08-20T06:55:18.628Z,19.57
2022-08-20T07:00:20.682Z,19.77
2022-08-20T07:05:22.485Z,19.97
2022-08-20T07:10:25.827Z,20.14
2022-08-20T07:15:27.750Z,20.43
2022-08-20T07:20:31.907Z,20.68
2022-08-20T07:25:33.915Z,20.69
2022-08-20T07:30:56.640Z,20.80
2022-08-20T07:36:02.038Z,21.06
2022-08-20T07:41:13.469Z,21.02
2022-08-20T07:46:20.815Z,20.95
2022-08-20T07:51:23.361Z,20.91
2022-08-20T07:56:25.030Z,21.03
2022-08-20T08:01:30.752Z,21.27
2022-08-20T08:06:45.294Z,21.54
2022-08-20T08:11:50.219Z,21.34
2022-08-20T08:16:55.179Z,21.58
2022-08-20T08:21:57.444Z,21.81
2022-08-20T08:27:00.570Z,22.06
2022-08-20T08:32:06.187Z,21.83
2022-08-20T08:37:07.863Z,21.68
2022-08-20T08:42:44.023Z,22.00
2022-08-20T08:47:46.022Z,22.03
2022-08-20T08:52:52.375Z,22.27
2022-08-20T08:57:56.738Z,22.31
2022-08-20T09:03:01.304Z,21.87
2022-08-20T09:08:06.731Z,22.17
2022-08-20T09:13:09.003Z,22.25
2022-08-20T09:18:10.651Z,22.10
2022-08-20T09:23:12.605Z,22.35
2022-08-20T09:28:15.410Z,22.25
2022-08-20T09:33:17.480Z,22.59
2022-08-20T09:38:19.097Z,23.09
2022-08-20T09:43:20.762Z,23.18
2022-08-20T09:48:29.595Z,23.28
2022-08-20T09:53:34.622Z,23.81
2022-08-20T09:58:47.239Z,25.96
2022-08-20T10:03:49.788Z,28.09
2022-08-20T10:08:51.357Z,28.84
2022-08-20T10:13:52.991Z,29.38
2022-08-20T10:18:54.614Z,29.48
2022-08-20T10:23:56.701Z,31.25
2022-08-20T10:28:58.305Z,30.58
2022-08-20T10:33:59.841Z,29.42
2022-08-20T10:39:01.528Z,29.85
2022-08-20T10:44:04.406Z,27.35
2022-08-20T10:49:06.337Z,28.09
2022-08-20T10:54:08.254Z,28.47
2022-08-20T10:59:14.402Z,28.60
2022-08-20T11:04:16.053Z,27.54
2022-08-20T11:09:17.608Z,27.70
2022-08-20T11:14:19.357Z,27.44
2022-08-20T11:19:21.037Z,28.23
2022-08-20T11:24:22.929Z,28.24
2022-08-20T11:29:24.842Z,27.27
2022-08-20T11:34:26.559Z,27.94
2022-08-20T11:39:28.306Z,26.70
2022-08-20T11:44:29.894Z,26.29
2022-08-20T11:49:34.483Z,27.32
2022-08-20T11:54:40.347Z,28.12
2022-08-20T11:59:42.269Z,28.22
2022-08-20T12:04:44.408Z,26.06
2022-08-20T12:09:51.067Z,26.35
2022-08-20T12:14:55.432Z,27.64
2022-08-20T12:19:59.438Z,26.87
2022-08-20T12:25:01.223Z,27.08
2022-08-20T12:30:07.397Z,25.89
2022-08-20T12:35:10.692Z,25.70
2022-08-20T12:40:16.028Z,24.58
2022-08-20T12:45:18.447Z,24.64
2022-08-20T12:50:24.726Z,24.60
2022-08-20T12:55:29.026Z,24.26
2022-08-20T13:00:34.215Z,24.40
2022-08-20T13:05:36.730Z,25.32
2022-08-20T13:10:44.248Z,26.04
2022-08-20T13:15:46.175Z,26.76
2022-08-20T13:20:48.694Z,26.39
2022-08-20T13:25:50.319Z,26.64
2022-08-20T13:30:52.071Z,26.99
2022-08-20T13:35:54.115Z,26.80
2022-08-20T13:40:55.774Z,26.52
2022-08-20T13:45:57.397Z,26.54
2022-08-20T13:50:59.042Z,26.45
2022-08-20T13:56:00.753Z,26.33
2022-08-20T14:01:02.408Z,26.14
2022-08-20T14:06:04.377Z,26.32
2022-08-20T14:11:06.319Z,26.03
2022-08-20T14:16:21.317Z,26.07
2022-08-20T14:21:28.888Z,26.06
2022-08-20T14:26:30.457Z,26.02
2022-08-20T14:31:32.008Z,25.86
2022-08-20T14:36:33.538Z,25.16
2022-08-20T14:41:35.132Z,25.40
2022-08-20T14:46:36.729Z,25.26
2022-08-20T14:51:38.788Z,25.00
2022-08-20T14:56:40.522Z,25.51
2022-08-20T15:01:42.396Z,25.65
2022-08-20T15:06:44.015Z,25.22
2022-08-20T15:11:46.892Z,24.78
2022-08-20T15:16:48.634Z,24.68
2022-08-20T15:21:50.301Z,24.77
2022-08-20T15:26:51.922Z,24.31
2022-08-20T15:31:53.545Z,24.28
2022-08-20T15:36:57.214Z,24.08
2022-08-20T15:41:58.752Z,24.03
2022-08-20T15:47:20.737Z,23.92
2022-08-20T15:52:25.316Z,23.77
2022-08-20T15:57:48.585Z,23.96
2022-08-20T16:03:19.773Z,23.87
2022-08-20T16:08:27.414Z,23.77
2022-08-20T16:13:40.554Z,24.00
2022-08-20T16:18:44.876Z,23.69
2022-08-20T16:23:46.544Z,23.46
2022-08-20T16:29:13.675Z,23.44
2022-08-20T16:34:34.295Z,22.97
2022-08-20T16:39:53.769Z,22.86
2022-08-20T16:44:56.885Z,22.89
2022-08-20T16:50:19.997Z,22.67
2022-08-20T16:55:24.590Z,22.46
2022-08-20T17:00:34.973Z,22.16
2022-08-20T17:05:45.497Z,21.92
2022-08-20T17:11:06.428Z,21.94
2022-08-20T17:16:18.813Z,21.90
2022-08-20T17:21:33.184Z,21.82
2022-08-20T17:26:44.452Z,21.59
2022-08-20T17:31:50.482Z,21.25
2022-08-20T17:37:08.604Z,21.10
2022-08-20T17:42:18.065Z,20.86
2022-08-20T17:47:26.702Z,20.71
2022-08-20T17:52:34.437Z,20.53
2022-08-20T17:57:40.028Z,20.40
2022-08-20T18:02:43.390Z,20.24
2022-08-20T18:07:58.621Z,20.08
2022-08-20T18:13:18.995Z,20.00
2022-08-20T18:18:29.806Z,19.77
2022-08-20T18:23:36.618Z,19.56
2022-08-20T18:28:52.689Z,19.39
2022-08-20T18:33:54.955Z,19.27
2022-08-20T18:39:05.177Z,19.08
2022-08-20T18:44:10.126Z,18.89
2022-08-20T18:49:14.812Z,18.81
2022-08-20T18:54:30.616Z,18.59
2022-08-20T18:59:37.962Z,18.49
2022-08-20T19:04:39.695Z,18.31
2022-08-20T19:10:27.596Z,18.01
2022-08-20T19:15:32.413Z,17.84
2022-08-20T19:20:35.981Z,17.71
2022-08-20T19:25:48.398Z,17.74
2022-08-20T19:30:50.890Z,17.67
2022-08-20T19:35:52.560Z,17.55
2022-08-20T19:40:55.975Z,17.44
2022-08-20T19:46:16.493Z,17.39
2022-08-20T19:51:45.831Z,17.27
2022-08-20T19:56:57.726Z,17.23
2022-08-20T20:02:04.432Z,17.10
2022-08-20T20:07:41.350Z,16.98
2022-08-20T20:12:42.993Z,16.93
2022-08-20T20:17:44.865Z,16.88
2022-08-20T20:22:56.186Z,16.80
2022-08-20T20:28:09.697Z,16.70
2022-08-20T20:33:35.534Z,16.48
2022-08-20T20:38:39.893Z,16.37
2022-08-20T20:43:42.978Z,16.33
2022-08-20T20:48:49.574Z,16.25
2022-08-20T20:53:54.975Z,16.12
2022-08-20T20:58:57.114Z,16.10
2022-08-20T21:03:58.688Z,16.02
2022-08-20T21:09:00.665Z,15.95
2022-08-20T21:14:02.263Z,15.91
2022-08-20T21:19:08.509Z,15.83
2022-08-20T21:24:11.135Z,15.72
2022-08-20T21:29:17.065Z,15.66
2022-08-20T21:34:19.336Z,15.57
2022-08-20T21:39:21.196Z,15.52
2022-08-20T21:44:26.532Z,15.54
2022-08-20T21:49:29.458Z,15.48
2022-08-20T21:54:33.037Z,15.43
2022-08-20T21:59:43.218Z,15.34
2022-08-20T22:04:45.162Z,15.37
2022-08-20T22:09:46.702Z,15.32
2022-08-20T22:14:49.142Z,15.27
2022-08-20T22:19:50.764Z,15.20
2022-08-20T22:24:52.454Z,15.17
2022-08-20T22:29:54.025Z,15.07
2022-08-20T22:34:58.198Z,14.99
2022-08-20T22:39:59.876Z,14.94
2022-08-20T22:45:01.561Z,14.85
2022-08-20T22:50:04.265Z,14.72
2022-08-20T22:55:06.612Z,14.65
2022-08-20T23:00:12.285Z,14.60
2022-08-20T23:05:17.188Z,14.46
2022-08-20T23:10:19.102Z,14.37
2022-08-20T23:15:20.656Z,14.32
2022-08-20T23:20:22.411Z,14.23
2022-08-20T23:25:24.337Z,14.22
2022-08-20T23:30:28.701Z,14.21
2022-08-20T23:35:33.059Z,14.16
2022-08-20T23:40:35.691Z,14.08
2022-08-20T23:45:40.178Z,14.06
2022-08-20T23:50:41.948Z,13.97
2022-08-20T23:55:43.776Z,13.98
